Time;durP1;ratioP1;P1;durP2;ratioP2;P2;SDS_P1;SDS_P2;PMS_P1;PMS_P2;Temp;Humidity;BMP_temperature;BMP_pressure;BME280_temperature;BME280_humidity;BME280_pressure;Samples;Min_cycle;Max_cycle;Signal;HPM_P1;HPM_P2
2021/12/03 02:30:52;;;;;;;2.35;2.13;;;-0.20;99.90;;;;;;4901983;29;20113;-94
2021/12/03 02:33:56;;;;;;;1.08;0.95;;;-1.20;99.90;;;;;;4894808;29;20061;-94
2021/12/03 02:37:04;;;;;;;0.98;0.98;;;1.20;99.90;;;;;;4903407;29;20017;-95
2021/12/03 02:55:40;;;;;;;0.75;0.75;;;-0.50;99.90;;;;;;4918077;28;20041;-94
2021/12/03 02:58:46;;;;;;;4.10;1.92;;;-0.30;99.90;;;;;;4898210;29;20063;-94
2021/12/03 03:01:44;;;;;;;2.30;1.70;;;-0.50;99.90;;;;;;4917336;29;20080;-95
2021/12/03 05:54:32;;;;;;;0.40;0.40;;;-2.50;99.90;;;;;;5291794;23;20048;-94
2021/12/03 05:57:38;;;;;;;1.00;1.00;;;-1.80;99.90;;;;;;4958707;28;20067;-94
2021/12/03 06:00:58;;;;;;;4.97;2.08;;;-1.60;99.90;;;;;;4959398;28;20055;-94
2021/12/03 06:04:03;;;;;;;4.28;1.35;;;-1.20;99.90;;;;;;4944450;29;20034;-94
2021/12/03 06:07:44;;;;;;;6.43;2.58;;;-1.20;99.90;;;;;;4923332;29;20057;-94
2021/12/03 06:10:30;;;;;;;3.42;1.58;;;-1.20;99.90;;;;;;4902020;29;20123;-94
2021/12/03 06:13:09;;;;;;;1.58;1.38;;;-1.10;99.90;;;;;;4907036;29;20028;-93
2021/12/03 06:16:00;;;;;;;1.13;1.13;;;-1.70;99.90;;;;;;4907150;29;20044;-94
2021/12/03 06:19:26;;;;;;;4.68;1.95;;;-0.80;99.90;;;;;;4923310;29;20085;-94
2021/12/03 06:22:32;;;;;;;13.02;2.45;;;-1.80;99.90;;;;;;4920065;29;20020;-95
2021/12/03 06:25:29;;;;;;;3.38;1.05;;;-1.00;99.90;;;;;;4923065;29;20040;-94
2021/12/03 06:28:52;;;;;;;0.95;0.60;;;-3.30;99.90;;;;;;4909878;29;20013;-94
2021/12/03 06:31:27;;;;;;;0.75;0.75;;;-0.20;99.90;;;;;;4921636;29;20021;-88
2021/12/03 06:33:53;;;;;;;4.90;1.58;;;-0.50;99.90;;;;;;4882858;29;20020;-94
2021/12/03 06:36:20;;;;;;;1.23;1.05;;;-1.20;99.90;;;;;;4883340;29;20501;-96
2021/12/03 06:38:46;;;;;;;1.65;1.55;;;-1.20;99.90;;;;;;4917456;29;20036;-93
2021/12/03 06:41:12;;;;;;;2.33;1.80;;;-1.30;99.90;;;;;;4938383;29;20024;-92
2021/12/03 06:43:38;;;;;;;0.57;0.57;;;-0.50;99.90;;;;;;4920117;29;20436;-92
2021/12/03 06:46:04;;;;;;;5.57;0.90;;;-0.60;99.90;;;;;;4935921;29;20523;-93
2021/12/03 06:48:30;;;;;;;0.90;0.90;;;0.00;99.90;;;;;;4918421;29;20031;-91
2021/12/03 06:50:57;;;;;;;1.27;1.17;;;-0.70;99.90;;;;;;4919105;29;20288;-93
2021/12/03 06:53:27;;;;;;;0.77;0.43;;;-1.50;99.90;;;;;;4918886;29;20083;-92
2021/12/03 06:55:57;;;;;;;1.35;1.25;;;-0.40;99.90;;;;;;4903585;29;20087;-92
2021/12/03 06:58:25;;;;;;;1.58;0.90;;;0.20;99.90;;;;;;4920392;29;20156;-92
2021/12/03 07:00:54;;;;;;;0.45;0.45;;;-2.60;99.90;;;;;;4926244;29;20282;-86
2021/12/03 07:03:21;;;;;;;0.98;0.80;;;-3.00;99.90;;;;;;4930547;28;20052;-85
2021/12/03 07:05:47;;;;;;;1.02;1.00;;;-3.10;99.90;;;;;;4936562;28;20020;-89
2021/12/03 07:08:14;;;;;;;1.27;0.68;;;-2.40;99.90;;;;;;4946095;28;20022;-84
2021/12/03 07:10:41;;;;;;;2.08;0.82;;;-2.70;99.90;;;;;;4943435;28;20039;-88
2021/12/03 07:13:07;;;;;;;0.60;0.60;;;-2.40;99.90;;;;;;4935469;29;20028;-92
2021/12/03 07:15:34;;;;;;;0.85;0.68;;;0.00;99.90;;;;;;4917980;29;20035;-92
2021/12/03 07:18:00;;;;;;;1.65;1.13;;;-2.10;99.90;;;;;;4920060;29;20059;-93
2021/12/03 07:20:28;;;;;;;0.40;0.40;;;-2.10;99.90;;;;;;4919836;29;20134;-91
2021/12/03 07:22:54;;;;;;;0.80;0.80;;;-2.00;99.90;;;;;;4919692;29;20079;-94
2021/12/03 07:25:22;;;;;;;0.80;0.80;;;-0.20;99.90;;;;;;4919787;29;20024;-92
2021/12/03 07:27:49;;;;;;;9.32;2.95;;;-0.70;99.90;;;;;;4918978;29;20032;-92
2021/12/03 07:30:17;;;;;;;3.30;3.05;;;-0.10;99.90;;;;;;4918333;29;20107;-94
2021/12/03 07:32:44;;;;;;;1.43;1.37;;;-0.20;99.90;;;;;;4918084;29;20028;-92
2021/12/03 07:35:10;;;;;;;3.58;3.20;;;-0.80;99.90;;;;;;4918277;29;20028;-92
2021/12/03 07:37:37;;;;;;;9.70;3.95;;;-0.60;99.90;;;;;;4919112;29;20393;-92
2021/12/03 07:40:07;;;;;;;13.15;6.45;;;-2.10;99.90;;;;;;4918009;29;20244;-93
2021/12/03 07:42:34;;;;;;;16.52;8.05;;;-2.50;99.90;;;;;;4917731;29;20048;-92
2021/12/03 07:45:00;;;;;;;13.80;5.55;;;-0.30;99.90;;;;;;4918343;29;20028;-92
2021/12/03 07:47:26;;;;;;;8.43;4.40;;;-0.50;99.90;;;;;;4918539;29;20028;-93
2021/12/03 07:49:52;;;;;;;7.50;4.50;;;-1.40;99.90;;;;;;4919284;29;20028;-92
2021/12/03 07:52:20;;;;;;;12.20;6.43;;;-0.50;99.90;;;;;;4919500;29;20027;-92
2021/12/03 07:54:46;;;;;;;16.52;5.88;;;-1.80;99.90;;;;;;4919297;29;20052;-94
2021/12/03 07:57:13;;;;;;;10.20;5.43;;;-2.30;99.90;;;;;;4936430;29;20048;-92
2021/12/03 07:59:42;;;;;;;9.38;3.92;;;-3.10;99.90;;;;;;4924905;29;20095;-85
2021/12/03 08:02:08;;;;;;;2.05;1.80;;;-3.30;99.90;;;;;;4907614;29;20083;-91
2021/12/03 08:04:34;;;;;;;14.15;2.35;;;-1.40;99.90;;;;;;4935349;29;20086;-92
2021/12/03 08:07:01;;;;;;;4.63;4.22;;;-2.20;99.90;;;;;;4918682;29;20803;-92
2021/12/03 08:09:27;;;;;;;13.63;4.55;;;-2.40;99.90;;;;;;4922800;29;20038;-91
2021/12/03 08:11:54;;;;;;;2.67;2.15;;;-3.20;99.90;;;;;;4937152;28;20023;-84
2021/12/03 08:14:22;;;;;;;6.20;3.63;;;-2.90;99.90;;;;;;4945250;28;20036;-85
2021/12/03 08:16:48;;;;;;;3.33;1.58;;;-3.40;99.90;;;;;;4935826;29;20513;-94
2021/12/03 08:19:14;;;;;;;5.38;2.45;;;-2.10;99.90;;;;;;4919719;29;20210;-83
2021/12/03 08:21:40;;;;;;;4.68;1.92;;;-1.20;99.90;;;;;;4926145;29;20047;-77
2021/12/03 08:24:06;;;;;;;2.30;2.17;;;-1.00;99.90;;;;;;4935051;29;20043;-78
2021/12/03 08:26:32;;;;;;;1.15;0.93;;;-1.50;99.90;;;;;;4954753;29;20027;-81
2021/12/03 08:28:58;;;;;;;2.80;2.10;;;-1.40;99.90;;;;;;4945465;29;20079;-82
2021/12/03 08:31:24;;;;;;;2.10;1.90;;;-1.70;99.90;;;;;;4956389;29;20031;-81
2021/12/03 08:33:51;;;;;;;1.52;0.95;;;-1.30;99.90;;;;;;4953193;29;20031;-82
2021/12/03 08:36:17;;;;;;;1.20;0.75;;;-1.20;99.90;;;;;;4951940;29;20110;-80
2021/12/03 08:38:43;;;;;;;4.50;1.08;;;-1.20;99.90;;;;;;4925677;29;20059;-79
2021/12/03 08:41:12;;;;;;;3.28;1.38;;;-1.10;99.90;;;;;;4915628;29;20024;-80
2021/12/03 08:43:38;;;;;;;1.02;0.70;;;-0.80;99.90;;;;;;4931578;29;20111;-81
2021/12/03 08:46:20;;;;;;;0.85;0.85;;;-0.70;99.90;;;;;;4915847;29;20122;-80
2021/12/03 08:48:48;;;;;;;2.10;1.35;;;-0.40;99.90;;;;;;4932684;29;20425;-82
2021/12/03 08:56:05;;;;;;;1.33;1.27;;;-0.30;99.90;;;;;;4931721;29;20054;-87
2021/12/03 08:58:30;;;;;;;3.42;1.40;;;-0.30;99.90;;;;;;4930338;29;20048;-81
2021/12/03 09:00:56;;;;;;;1.67;1.10;;;-0.20;99.90;;;;;;4931818;29;20055;-83
2021/12/03 09:03:26;;;;;;;0.77;0.77;;;-0.10;99.90;;;;;;4918703;29;20036;-90
2021/12/03 09:05:53;;;;;;;0.82;0.82;;;;;;;;;;4927507;29;20050;-81
2021/12/03 09:08:18;;;;;;;1.02;0.93;;;0.00;99.90;;;;;;4922233;29;20090;-81
2021/12/03 09:10:44;;;;;;;3.80;0.90;;;0.80;99.90;;;;;;4920612;29;20032;-90
2021/12/03 09:13:10;;;;;;;0.98;0.98;;;0.20;99.90;;;;;;4915293;29;20477;-81
2021/12/03 09:15:42;;;;;;;1.20;1.00;;;1.10;99.90;;;;;;4942803;28;20027;-81
2021/12/03 09:21:00;;;;;;;1.35;1.08;;;0.20;99.90;;;;;;4960643;29;20388;-81
2021/12/03 09:26:17;;;;;;;1.42;1.15;;;1.10;99.90;;;;;;4963768;29;20035;-89
2021/12/03 09:28:49;;;;;;;0.73;0.73;;;0.30;99.90;;;;;;4961819;29;20030;-82
2021/12/03 09:31:16;;;;;;;1.35;1.25;;;0.30;99.90;;;;;;4953252;29;20023;-83
2021/12/03 09:33:47;;;;;;;2.35;1.35;;;0.30;99.90;;;;;;4962818;29;20099;-83
2021/12/03 09:36:13;;;;;;;1.02;0.70;;;0.70;99.90;;;;;;4961635;29;20033;-83
2021/12/03 09:38:45;;;;;;;1.48;1.30;;;0.50;99.90;;;;;;4960554;29;20118;-83
2021/12/03 09:41:16;;;;;;;0.85;0.68;;;0.30;99.90;;;;;;4963683;29;20027;-83
2021/12/03 09:43:47;;;;;;;2.10;1.10;;;0.50;99.90;;;;;;4947704;28;20043;-83
2021/12/03 09:46:22;;;;;;;1.05;1.05;;;0.80;99.90;;;;;;4945007;29;20027;-82
2021/12/03 09:51:27;;;;;;;5.82;1.98;;;0.70;99.90;;;;;;4959430;29;20540;-83
2021/12/03 09:56:38;;;;;;;1.10;1.00;;;0.70;99.90;;;;;;4960953;28;20044;-83
2021/12/03 10:02:11;;;;;;;3.53;1.38;;;0.00;99.90;;;;;;4955720;29;20084;-93
2021/12/03 10:04:48;;;;;;;1.35;1.10;;;-1.20;99.90;;;;;;4905173;29;20048;-92
2021/12/03 10:15:24;;;;;;;1.15;1.02;;;-0.10;99.90;;;;;;4933964;29;20036;-94
2021/12/03 10:20:46;;;;;;;2.00;1.02;;;-0.10;99.90;;;;;;4956833;29;20031;-92
2021/12/03 10:38:59;;;;;;;1.38;1.05;;;2.00;99.90;;;;;;4981548;28;20034;-84
2021/12/03 10:41:08;;;;;;;1.02;0.80;;;0.90;99.90;;;;;;4966939;28;20045;-84
2021/12/03 10:52:09;;;;;;;1.10;0.93;;;1.90;99.90;;;;;;4979363;28;20008;-84
2021/12/03 11:03:57;;;;;;;1.65;1.55;;;0.50;99.90;;;;;;4981861;28;20103;-84
2021/12/03 11:36:42;;;;;;;3.22;1.85;;;2.40;99.90;;;;;;4960864;28;20039;-85
2021/12/03 12:10:31;;;;;;;4.35;1.65;;;1.70;99.90;;;;;;4961624;28;20044;-84
2021/12/03 12:15:12;;;;;;;2.00;1.50;;;1.60;99.90;;;;;;4961435;28;20011;-85
2021/12/03 12:59:32;;;;;;;2.25;1.20;;;4.30;99.90;;;;;;4915396;29;20039;-85
2021/12/03 13:02:06;;;;;;;3.10;1.00;;;4.50;99.90;;;;;;4922367;29;20036;-85
2021/12/03 13:39:47;;;;;;;1.13;1.02;;;1.60;99.90;;;;;;4921408;29;20024;-83
2021/12/03 14:07:20;;;;;;;1.48;1.38;;;2.20;99.90;;;;;;4925274;29;20031;-85
2021/12/03 14:09:48;;;;;;;4.32;1.58;;;2.20;99.90;;;;;;4924145;29;20028;-85
2021/12/03 14:45:38;;;;;;;0.80;0.75;;;2.80;99.90;;;;;;4924494;29;20008;-84
2021/12/03 14:53:56;;;;;;;;;;;1.20;99.90;;;;;;4925591;29;20076;-85
2021/12/03 14:56:25;;;;;;;3.83;1.45;;;2.80;99.90;;;;;;4908804;29;19926;-84
2021/12/03 14:59:24;;;;;;;2.75;1.02;;;-0.10;99.90;;;;;;4908507;29;20040;-84
2021/12/03 15:02:11;;;;;;;1.05;0.95;;;2.90;99.90;;;;;;4923952;29;20080;-83
2021/12/03 15:04:55;;;;;;;0.75;0.75;;;2.70;99.90;;;;;;4923402;29;20035;-82
2021/12/03 15:07:24;;;;;;;3.20;1.65;;;2.90;99.90;;;;;;4907209;29;20025;-83
2021/12/03 15:09:52;;;;;;;2.28;1.65;;;2.50;99.90;;;;;;4921046;29;20144;-83
2021/12/03 15:13:12;;;;;;;3.83;0.95;;;3.00;99.90;;;;;;4922128;29;20577;-83
2021/12/03 15:23:36;;;;;;;2.17;1.52;;;2.20;99.90;;;;;;4848920;29;20026;-83
2021/12/03 15:31:49;;;;;;;1.45;0.70;;;0.10;99.90;;;;;;4923050;29;20068;-84
2021/12/03 16:03:58;;;;;;;3.22;1.50;;;0.50;99.90;;;;;;4923508;29;20051;-84
2021/12/03 16:06:29;;;;;;;1.95;1.33;;;3.20;99.90;;;;;;4906637;29;20021;-84
2021/12/03 16:09:03;;;;;;;1.08;0.98;;;1.20;99.90;;;;;;4906356;29;20016;-83
2021/12/03 16:11:37;;;;;;;2.40;1.52;;;1.20;99.90;;;;;;4907307;29;20024;-84
2021/12/03 16:14:53;;;;;;;1.17;1.08;;;1.70;99.90;;;;;;4904945;29;20047;-83
2021/12/03 17:18:39;;;;;;;4.40;2.45;;;1.40;99.90;;;;;;5640315;23;20066;-84
2021/12/03 18:18:43;;;;;;;2.40;1.88;;;1.10;99.90;;;;;;5857028;23;20065;-84
2021/12/03 19:00:56;;;;;;;2.65;1.40;;;0.80;99.90;;;;;;4923545;29;20040;-84
2021/12/03 19:11:14;;;;;;;1.05;0.95;;;0.70;99.90;;;;;;4925057;29;20021;-85
2021/12/03 19:13:41;;;;;;;1.55;1.45;;;-0.30;99.90;;;;;;4925098;29;20020;-84
2021/12/03 19:16:10;;;;;;;4.07;0.73;;;0.00;99.90;;;;;;4908850;29;20041;-85
2021/12/03 19:18:37;;;;;;;;;;;1.00;99.90;;;;;;4924722;29;20028;-84
2021/12/03 19:21:08;;;;;;;2.22;1.90;;;1.20;99.90;;;;;;4908706;29;19896;-85
2021/12/03 19:23:34;;;;;;;0.57;0.57;;;0.50;99.90;;;;;;4923432;29;20051;-84
2021/12/03 19:26:00;;;;;;;2.28;1.75;;;1.20;99.90;;;;;;4908440;29;20033;-84
2021/12/03 19:28:26;;;;;;;2.70;1.23;;;1.40;99.90;;;;;;4924628;29;20049;-85
2021/12/03 19:30:55;;;;;;;0.88;0.88;;;0.20;99.90;;;;;;4908270;29;20029;-85
2021/12/03 19:33:22;;;;;;;3.60;1.60;;;-0.20;99.90;;;;;;4908323;29;20025;-85
2021/12/03 19:38:23;;;;;;;3.17;1.80;;;0.80;99.90;;;;;;5592475;23;20078;-83
2021/12/03 19:40:59;;;;;;;1.20;1.00;;;0.80;99.90;;;;;;4945873;28;20071;-84
2021/12/03 19:43:30;;;;;;;1.40;1.30;;;0.70;99.90;;;;;;4945997;28;20028;-84
2021/12/03 19:46:05;;;;;;;5.28;1.98;;;1.00;99.90;;;;;;4944866;28;20020;-83
2021/12/03 19:51:13;;;;;;;2.17;1.17;;;0.80;99.90;;;;;;5049091;23;20059;-83
2021/12/03 19:53:55;;;;;;;3.45;0.98;;;1.00;99.90;;;;;;4946044;28;20091;-84
2021/12/03 19:56:30;;;;;;;2.17;1.40;;;0.90;99.90;;;;;;4945774;28;20023;-83
2021/12/03 19:58:58;;;;;;;2.05;1.58;;;1.00;99.90;;;;;;4945180;28;20047;-84
2021/12/03 20:01:29;;;;;;;8.23;1.23;;;-0.30;99.90;;;;;;4945619;28;20020;-85
2021/12/03 20:03:55;;;;;;;1.80;1.27;;;1.10;99.90;;;;;;5061446;23;20063;-83
2021/12/03 20:06:22;;;;;;;1.50;1.13;;;0.20;99.90;;;;;;4941728;28;20032;-85
2021/12/03 20:08:55;;;;;;;2.30;1.10;;;0.50;99.90;;;;;;4942335;29;20016;-83
2021/12/03 20:11:26;;;;;;;3.97;1.33;;;-0.70;99.90;;;;;;4942209;29;20092;-84
2021/12/03 20:13:56;;;;;;;2.08;1.23;;;-0.70;99.90;;;;;;4942008;29;20016;-83
2021/12/03 20:16:41;;;;;;;1.70;1.13;;;-0.40;99.90;;;;;;4941304;29;20111;-84
2021/12/03 20:19:17;;;;;;;2.00;1.60;;;2.50;99.90;;;;;;4941795;29;20078;-85
2021/12/03 20:21:49;;;;;;;3.10;2.83;;;0.90;99.90;;;;;;4941745;29;20028;-84
2021/12/03 20:27:24;;;;;;;3.30;1.85;;;0.50;99.90;;;;;;4942720;29;20049;-83
2021/12/03 20:29:53;;;;;;;4.37;1.33;;;2.00;99.90;;;;;;4941504;29;20076;-84
2021/12/03 20:37:44;;;;;;;2.53;1.88;;;3.60;99.90;;;;;;4942133;29;20040;-86
2021/12/03 20:45:46;;;;;;;2.58;1.65;;;-0.10;99.90;;;;;;4961374;28;20043;-85
2021/12/03 21:09:18;;;;;;;3.33;1.52;;;-0.10;99.90;;;;;;4960745;28;20042;-85
2021/12/03 21:12:07;;;;;;;2.75;1.67;;;-0.10;99.90;;;;;;4960196;28;20023;-84
2021/12/03 21:17:46;;;;;;;1.33;1.23;;;2.20;99.90;;;;;;4965005;28;20035;-84
2021/12/03 21:20:32;;;;;;;2.50;2.00;;;2.00;99.90;;;;;;4964306;28;20058;-84
2021/12/03 21:23:02;;;;;;;1.65;1.63;;;0.30;99.90;;;;;;4948292;28;20095;-85
2021/12/03 21:25:33;;;;;;;3.00;1.88;;;1.70;99.90;;;;;;4948411;28;20012;-84
2021/12/03 21:28:16;;;;;;;5.65;2.47;;;3.30;99.90;;;;;;4948081;28;20016;-84
2021/12/03 21:41:24;;;;;;;2.47;1.98;;;0.10;99.90;;;;;;4964606;28;20019;-83
2021/12/03 21:43:54;;;;;;;2.08;1.98;;;2.30;99.90;;;;;;4947701;28;20108;-83
2021/12/03 21:46:26;;;;;;;4.22;1.83;;;1.50;99.90;;;;;;4947840;28;20032;-85
2021/12/03 21:48:53;;;;;;;2.83;1.85;;;0.80;99.90;;;;;;4947678;28;20024;-85
2021/12/03 21:51:21;;;;;;;4.15;1.50;;;0.50;99.90;;;;;;4947587;28;20024;-86
2021/12/03 22:11:01;;;;;;;1.25;0.93;;;1.40;99.90;;;;;;4923906;29;20036;-83
2021/12/03 22:13:27;;;;;;;2.70;1.92;;;1.30;99.90;;;;;;4956292;28;20052;-83
2021/12/03 22:15:59;;;;;;;1.70;1.30;;;1.70;99.90;;;;;;4942066;29;20072;-83
2021/12/03 22:18:25;;;;;;;2.40;1.58;;;1.40;99.90;;;;;;4926595;28;20056;-83
2021/12/03 22:21:00;;;;;;;1.85;1.67;;;1.40;99.90;;;;;;4943258;29;20018;-84
2021/12/03 22:23:30;;;;;;;1.77;1.67;;;1.20;99.90;;;;;;4927041;28;20036;-83
2021/12/03 22:25:56;;;;;;;1.70;1.63;;;1.50;99.90;;;;;;4925535;29;20080;-84
2021/12/03 22:28:37;;;;;;;1.75;1.65;;;1.30;99.90;;;;;;4943337;28;20036;-85
2021/12/03 22:31:04;;;;;;;12.05;3.10;;;1.50;99.90;;;;;;4943866;28;20032;-86
2021/12/03 22:33:31;;;;;;;3.35;2.08;;;1.30;99.90;;;;;;4927727;28;20032;-84
2021/12/03 22:35:58;;;;;;;2.10;1.58;;;2.30;99.90;;;;;;4927588;28;20047;-84
2021/12/03 22:38:24;;;;;;;2.45;2.25;;;-1.10;99.90;;;;;;4944000;28;20023;-84
2021/12/03 22:40:51;;;;;;;6.28;2.88;;;0.40;99.90;;;;;;4927748;29;20026;-83
2021/12/03 22:43:18;;;;;;;3.20;2.10;;;1.50;99.90;;;;;;4926332;29;20043;-83
2021/12/03 22:46:01;;;;;;;8.75;2.47;;;1.40;99.90;;;;;;4926892;29;20020;-84
2021/12/03 22:53:44;;;;;;;4.45;1.92;;;1.20;99.90;;;;;;4943249;28;20032;-83
2021/12/03 22:56:11;;;;;;;3.45;3.25;;;1.60;99.90;;;;;;4924250;29;20035;-82
2021/12/03 22:58:37;;;;;;;2.50;2.30;;;1.20;99.90;;;;;;4922099;29;20016;-83
2021/12/03 23:01:09;;;;;;;4.70;2.58;;;0.50;99.90;;;;;;4941105;28;20028;-83
2021/12/03 23:03:36;;;;;;;2.53;1.67;;;1.30;99.90;;;;;;4941965;28;20043;-83
2021/12/03 23:06:07;;;;;;;4.40;2.47;;;1.20;99.90;;;;;;4926688;29;20031;-83
2021/12/03 23:08:33;;;;;;;1.98;1.58;;;1.20;99.90;;;;;;4943221;28;20020;-84
2021/12/03 23:11:00;;;;;;;2.13;2.03;;;-1.10;99.90;;;;;;4926189;29;20040;-82
2021/12/03 23:13:30;;;;;;;6.03;3.05;;;1.10;99.90;;;;;;4924055;29;20024;-81
2021/12/03 23:15:55;;;;;;;;;;;1.00;99.90;;;;;;4941227;29;20027;-83
2021/12/03 23:18:22;;;;;;;3.08;1.60;;;1.30;99.90;;;;;;4924899;29;19895;-83
2021/12/03 23:20:52;;;;;;;2.60;2.30;;;1.10;99.90;;;;;;4938584;29;20028;-84
2021/12/03 23:23:25;;;;;;;1.60;1.47;;;1.00;99.90;;;;;;4922318;29;20024;-83
2021/12/03 23:25:55;;;;;;;6.03;2.17;;;1.10;99.90;;;;;;4926776;29;20024;-83
2021/12/03 23:28:24;;;;;;;2.65;1.80;;;1.10;99.90;;;;;;4935488;29;20031;-81
2021/12/03 23:30:51;;;;;;;2.42;2.25;;;1.00;99.90;;;;;;4930376;29;20108;-82
2021/12/03 23:33:18;;;;;;;2.00;1.88;;;-1.20;99.90;;;;;;4932686;29;20020;-82
2021/12/03 23:35:47;;;;;;;1.45;1.35;;;0.30;99.90;;;;;;4917128;29;20244;-82
2021/12/03 23:38:14;;;;;;;1.95;1.85;;;1.00;99.90;;;;;;4913299;29;20308;-81
2021/12/03 23:40:43;;;;;;;1.42;1.33;;;1.00;99.90;;;;;;4919191;29;20020;-83
2021/12/03 23:43:12;;;;;;;5.47;3.07;;;1.00;99.90;;;;;;4926510;29;20056;-84
2021/12/03 23:45:41;;;;;;;3.92;2.67;;;1.10;99.90;;;;;;4926035;29;20288;-83
2021/12/03 23:48:08;;;;;;;2.72;1.52;;;0.00;99.90;;;;;;4925855;29;20335;-84
2021/12/03 23:50:35;;;;;;;1.95;1.33;;;1.20;99.90;;;;;;4923530;29;20031;-82
2021/12/03 23:53:01;;;;;;;2.80;2.45;;;0.90;99.90;;;;;;4931733;29;20024;-82
2021/12/03 23:55:28;;;;;;;6.22;3.88;;;1.00;99.90;;;;;;4919871;29;20020;-83
2021/12/03 23:57:55;;;;;;;1.67;1.58;;;0.90;99.90;;;;;;4922306;29;20555;-83
